Time;durP1;ratioP1;P1;durP2;ratioP2;P2;SDS_P1;SDS_P2;PMS_P1;PMS_P2;Temp;Humidity;BMP_temperature;BMP_pressure;BME280_temperature;BME280_humidity;BME280_pressure;Samples;Min_cycle;Max_cycle;Signal;HPM_P1;HPM_P2
2023/11/13 00:01:12;;;;;;;0.43;0.20;;;;;;;4.54;78.63;100575.22;4987628;28;20049;-75
2023/11/13 00:03:39;;;;;;;0.77;0.20;;;;;;;4.54;78.80;100581.25;4989307;28;20046;-76
2023/11/13 00:06:06;;;;;;;0.60;0.30;;;;;;;4.54;78.83;100577.81;4986257;28;20042;-75
2023/11/13 00:08:33;;;;;;;0.35;0.20;;;;;;;4.53;78.63;100578.69;4987449;28;20502;-76
2023/11/13 00:11:01;;;;;;;0.85;0.30;;;;;;;4.53;78.64;100581.25;4986529;28;20046;-75
2023/11/13 00:13:29;;;;;;;0.30;0.20;;;;;;;4.52;78.81;100582.97;4987560;28;20137;-76
2023/11/13 00:15:57;;;;;;;0.40;0.20;;;;;;;4.51;78.86;100576.06;4986312;28;20557;-75
2023/11/13 00:18:25;;;;;;;0.65;0.30;;;;;;;4.49;78.80;100578.63;4985247;28;20042;-76
2023/11/13 00:20:52;;;;;;;0.25;0.22;;;;;;;4.47;78.55;100575.19;4989258;28;20049;-75
2023/11/13 00:23:19;;;;;;;0.50;0.25;;;;;;;4.48;78.85;100578.66;4986096;28;20407;-75
2023/11/13 00:25:46;;;;;;;3.60;0.20;;;;;;;4.46;78.84;100577.78;4988118;28;20054;-75
2023/11/13 00:28:13;;;;;;;0.30;0.20;;;;;;;4.43;78.85;100575.19;4987602;28;20065;-76
2023/11/13 00:30:41;;;;;;;0.73;0.30;;;;;;;4.45;78.71;100574.31;4989461;28;20407;-76
2023/11/13 00:33:08;;;;;;;0.63;0.40;;;;;;;4.45;78.87;100565.72;4988914;28;20054;-78
2023/11/13 00:35:35;;;;;;;1.48;0.30;;;;;;;4.43;78.58;100568.28;4991869;28;20050;-78
2023/11/13 00:38:02;;;;;;;0.35;0.25;;;;;;;4.42;78.74;100561.38;4990595;28;20066;-78
2023/11/13 00:40:31;;;;;;;3.10;0.40;;;;;;;4.44;78.79;100563.97;4991478;28;20057;-78
2023/11/13 00:42:58;;;;;;;0.60;0.40;;;;;;;4.43;78.78;100560.50;4989918;28;20763;-78
2023/11/13 00:45:24;;;;;;;0.40;0.30;;;;;;;4.43;78.45;100562.25;4993455;28;20054;-78
2023/11/13 00:47:53;;;;;;;0.73;0.40;;;;;;;4.41;78.75;100557.09;4983903;28;20054;-78
2023/11/13 00:50:19;;;;;;;1.85;0.50;;;;;;;4.41;78.77;100558.78;4993307;28;20076;-77
2023/11/13 00:52:46;;;;;;;0.57;0.47;;;;;;;4.41;78.67;100564.84;4991605;28;20050;-78
2023/11/13 00:55:13;;;;;;;1.33;0.50;;;;;;;4.40;78.66;100563.09;4985399;28;20134;-78
2023/11/13 00:57:40;;;;;;;0.60;0.52;;;;;;;4.39;78.65;100558.78;4990634;28;20086;-78
2023/11/13 01:00:10;;;;;;;0.60;0.40;;;;;;;4.39;78.47;100555.34;4990463;28;20494;-78
2023/11/13 01:02:37;;;;;;;1.45;0.50;;;;;;;4.37;78.70;100563.09;4989998;28;20126;-78
2023/11/13 01:05:06;;;;;;;2.58;0.70;;;;;;;4.38;78.62;100561.34;4992356;28;20051;-78
2023/11/13 01:07:33;;;;;;;0.60;0.40;;;;;;;4.37;78.74;100567.41;4990018;28;20052;-78
2023/11/13 01:10:02;;;;;;;0.60;0.50;;;;;;;4.36;78.82;100566.53;4991360;28;20479;-78
2023/11/13 01:12:29;;;;;;;0.55;0.40;;;;;;;4.37;78.59;100567.41;4989220;28;20047;-78
2023/11/13 01:14:56;;;;;;;1.02;0.60;;;;;;;4.36;78.63;100565.69;4994434;28;20046;-78
2023/11/13 01:17:23;;;;;;;0.60;0.40;;;;;;;4.35;78.74;100566.53;4992439;28;20050;-77
2023/11/13 01:19:50;;;;;;;0.57;0.30;;;;;;;4.35;78.59;100563.94;4992476;28;20042;-78
2023/11/13 01:22:18;;;;;;;0.45;0.45;;;;;;;4.35;78.65;100569.09;4992044;28;20043;-77
2023/11/13 01:24:45;;;;;;;0.40;0.30;;;;;;;4.35;78.71;100563.94;4993523;28;20046;-77
2023/11/13 01:27:12;;;;;;;0.60;0.30;;;;;;;4.34;78.66;100567.41;4992690;28;20045;-78
2023/11/13 01:29:38;;;;;;;0.90;0.50;;;;;;;4.34;78.61;100567.41;4993783;28;20494;-79
2023/11/13 01:32:05;;;;;;;0.75;0.40;;;;;;;4.33;78.55;100565.69;4949640;28;1193140;-77
2023/11/13 01:34:32;;;;;;;0.60;0.40;;;;;;;4.33;78.59;100563.09;4988982;28;20169;-77
2023/11/13 01:36:59;;;;;;;0.40;0.38;;;;;;;4.32;78.62;100574.28;4994742;28;20057;-77
2023/11/13 01:39:27;;;;;;;0.50;0.30;;;;;;;4.33;78.58;100565.69;4993901;28;20050;-77
2023/11/13 01:41:54;;;;;;;0.60;0.30;;;;;;;4.32;78.55;100575.13;4993393;28;20521;-73
2023/11/13 01:44:21;;;;;;;1.73;0.50;;;;;;;4.31;78.37;100569.97;4988039;28;20058;-72
2023/11/13 01:46:49;;;;;;;0.80;0.35;;;;;;;4.28;78.48;100568.22;4986160;28;20050;-73
2023/11/13 01:49:16;;;;;;;1.40;0.35;;;;;;;4.28;78.51;100569.09;4989364;28;20049;-72
2023/11/13 01:51:43;;;;;;;0.40;0.30;;;;;;;4.27;78.59;100562.22;4988428;28;20525;-72
2023/11/13 01:54:10;;;;;;;1.75;0.30;;;;;;;4.26;78.43;100559.59;4990900;28;20050;-72
2023/11/13 01:56:38;;;;;;;0.30;0.22;;;;;;;4.23;78.42;100555.28;4986395;28;20053;-73
2023/11/13 01:59:06;;;;;;;0.40;0.30;;;;;;;4.25;78.37;100563.91;4989530;28;20407;-73
2023/11/13 02:01:33;;;;;;;0.90;0.30;;;;;;;4.24;78.72;100562.19;4987754;28;20061;-73
2023/11/13 02:04:00;;;;;;;0.50;0.40;;;;;;;4.25;78.62;100561.31;4987916;28;20046;-72
2023/11/13 02:06:27;;;;;;;0.38;0.28;;;;;;;4.24;78.49;100553.53;4990449;28;20050;-72
2023/11/13 02:08:54;;;;;;;2.28;0.30;;;;;;;4.26;78.45;100559.59;4988526;28;20681;-72
2023/11/13 02:11:22;;;;;;;0.38;0.30;;;;;;;4.24;78.48;100557.03;4989957;28;20065;-72
2023/11/13 02:13:51;;;;;;;0.47;0.30;;;;;;;4.24;78.52;100557.03;4988173;28;20081;-72
2023/11/13 02:16:18;;;;;;;0.50;0.30;;;;;;;4.24;78.36;100557.03;4989261;28;20779;-73
2023/11/13 02:18:45;;;;;;;0.40;0.30;;;;;;;4.24;78.36;100554.44;4988745;28;20051;-72
2023/11/13 02:21:12;;;;;;;0.50;0.30;;;;;;;4.24;78.49;100557.03;4991169;28;20511;-72
2023/11/13 02:23:40;;;;;;;0.30;0.30;;;;;;;4.23;78.29;100555.28;4988676;28;20053;-74
2023/11/13 02:26:14;;;;;;;0.40;0.30;;;;;;;4.23;78.42;100555.28;4989920;28;20057;-73
2023/11/13 02:28:41;;;;;;;0.30;0.30;;;;;;;4.22;78.31;100545.81;4988713;28;20050;-72
2023/11/13 02:31:08;;;;;;;0.30;0.20;;;;;;;4.22;78.36;100548.38;4988990;28;20058;-76
2023/11/13 02:33:35;;;;;;;0.80;0.30;;;;;;;4.20;78.48;100544.91;4989432;28;20058;-76
2023/11/13 02:36:02;;;;;;;0.40;0.30;;;;;;;4.22;78.45;100547.53;4989875;28;20054;-76
2023/11/13 02:38:28;;;;;;;0.30;0.22;;;;;;;4.22;78.32;100550.13;4987072;28;20050;-76
2023/11/13 02:40:58;;;;;;;0.43;0.30;;;;;;;4.21;78.25;100543.19;4986181;28;20054;-76
2023/11/13 02:43:25;;;;;;;1.83;0.22;;;;;;;4.20;78.22;100538.91;4988325;28;20699;-76
2023/11/13 02:45:52;;;;;;;0.73;0.30;;;;;;;4.18;78.34;100541.47;4986566;28;20112;-76
2023/11/13 02:48:19;;;;;;;0.30;0.25;;;;;;;4.17;78.43;100542.34;4987627;28;20046;-76
2023/11/13 02:50:46;;;;;;;0.20;0.20;;;;;;;4.17;78.29;100544.06;4987109;28;20088;-76
2023/11/13 02:53:14;;;;;;;0.30;0.25;;;;;;;4.17;78.30;100549.22;4992296;28;20046;-77
2023/11/13 02:55:40;;;;;;;0.40;0.30;;;;;;;4.15;78.31;100549.22;4990630;28;20392;-77
2023/11/13 02:58:09;;;;;;;0.85;0.20;;;;;;;4.14;78.11;100554.38;4988736;28;20515;-77
2023/11/13 03:00:35;;;;;;;1.35;0.30;;;;;;;4.13;78.28;100550.09;4989819;28;20050;-77
2023/11/13 03:03:02;;;;;;;0.30;0.22;;;;;;;4.12;78.25;100540.59;4991616;28;20054;-77
2023/11/13 03:05:30;;;;;;;0.40;0.20;;;;;;;4.11;78.41;100541.44;4989669;28;20061;-77
2023/11/13 03:07:57;;;;;;;0.65;0.52;;;;;;;4.11;78.14;100544.03;4990518;28;20105;-77
2023/11/13 03:10:24;;;;;;;1.85;0.30;;;;;;;4.09;78.05;100530.22;4986276;28;20054;-77
2023/11/13 03:12:51;;;;;;;0.43;0.40;;;;;;;4.09;78.02;100545.75;4992647;28;20046;-77
2023/11/13 03:15:20;;;;;;;0.50;0.25;;;;;;;4.07;78.01;100538.00;4991486;28;20403;-77
2023/11/13 03:17:46;;;;;;;0.75;0.30;;;;;;;4.06;78.10;100549.19;4989739;28;20050;-77
2023/11/13 03:20:13;;;;;;;0.60;0.30;;;;;;;4.04;77.97;100538.84;4987331;28;20054;-77
2023/11/13 03:22:40;;;;;;;0.40;0.30;;;;;;;4.05;78.08;100547.47;4988280;28;20050;-77
2023/11/13 03:25:08;;;;;;;2.70;0.28;;;;;;;4.04;77.97;100537.97;4988153;28;20051;-77
2023/11/13 03:27:35;;;;;;;1.08;0.45;;;;;;;4.01;77.82;100544.00;4991870;28;20419;-77
2023/11/13 03:30:03;;;;;;;2.38;0.20;;;;;;;4.02;78.06;100545.72;4991733;28;20043;-77
2023/11/13 03:32:31;;;;;;;0.95;0.30;;;;;;;4.02;77.55;100547.44;4988501;28;20053;-77
2023/11/13 03:34:58;;;;;;;0.50;0.30;;;;;;;4.00;77.93;100544.84;4991123;28;20058;-77
2023/11/13 03:37:25;;;;;;;0.47;0.30;;;;;;;4.00;77.88;100541.41;4990308;28;20463;-77
2023/11/13 03:39:52;;;;;;;0.47;0.30;;;;;;;3.99;77.85;100544.84;4993129;28;20042;-77
2023/11/13 03:42:19;;;;;;;0.40;0.20;;;;;;;3.97;77.82;100546.56;4988592;28;20491;-73
2023/11/13 03:44:46;;;;;;;0.30;0.30;;;;;;;3.98;77.73;100548.28;4989881;28;20049;-72
2023/11/13 03:47:13;;;;;;;0.50;0.30;;;;;;;3.96;77.85;100550.00;4984278;28;20050;-73
2023/11/13 03:49:41;;;;;;;0.73;0.30;;;;;;;3.95;77.63;100543.09;4986844;28;20057;-73
2023/11/13 03:52:13;;;;;;;1.83;0.50;;;;;;;3.93;78.07;100544.81;4983685;28;20100;-73
2023/11/13 03:54:40;;;;;;;0.60;0.20;;;;;;;3.92;77.77;100537.91;4984237;28;20503;-73
2023/11/13 03:57:07;;;;;;;0.65;0.25;;;;;;;3.92;77.67;100543.06;4985274;28;20042;-73
2023/11/13 03:59:33;;;;;;;2.85;0.20;;;;;;;3.91;77.66;100541.38;4986593;28;20051;-73
2023/11/13 04:02:00;;;;;;;0.90;0.40;;;;;;;3.89;77.53;100545.66;4989302;28;20049;-77
2023/11/13 04:04:27;;;;;;;1.35;0.30;;;;;;;3.89;77.62;100545.66;4988059;28;20487;-77
2023/11/13 04:06:56;;;;;;;0.47;0.30;;;;;;;3.86;77.51;100545.63;4990592;28;20046;-77
2023/11/13 04:09:23;;;;;;;0.50;0.30;;;;;;;3.88;77.60;100549.09;4986301;28;20047;-77
2023/11/13 04:11:50;;;;;;;1.40;0.30;;;;;;;3.87;77.64;100539.59;4986516;28;20043;-77
2023/11/13 04:14:17;;;;;;;0.40;0.30;;;;;;;3.86;77.56;100545.63;4988481;28;20423;-77
2023/11/13 04:16:44;;;;;;;0.40;0.30;;;;;;;3.86;77.69;100543.06;4990369;28;20535;-77
2023/11/13 04:19:11;;;;;;;0.50;0.30;;;;;;;3.84;77.44;100553.38;4986958;28;20046;-77
2023/11/13 04:21:39;;;;;;;0.30;0.30;;;;;;;3.82;77.49;100549.94;4988500;28;20073;-77
2023/11/13 04:24:08;;;;;;;0.43;0.20;;;;;;;3.82;77.53;100547.34;4985931;28;20056;-77
2023/11/13 04:26:35;;;;;;;0.70;0.50;;;;;;;3.81;77.46;100555.94;4992223;28;20732;-77
2023/11/13 04:29:02;;;;;;;1.88;0.30;;;;;;;3.79;77.45;100548.19;4990504;28;20056;-77
2023/11/13 04:31:29;;;;;;;0.50;0.30;;;;;;;3.76;77.36;100553.34;4989139;28;20054;-77
2023/11/13 04:33:56;;;;;;;1.08;0.30;;;;;;;3.76;77.52;100555.06;4983212;28;20106;-77
2023/11/13 04:36:25;;;;;;;0.30;0.20;;;;;;;3.74;77.41;100555.03;4988510;28;20061;-77
2023/11/13 04:38:52;;;;;;;2.13;0.30;;;;;;;3.73;77.53;100550.75;4988009;28;20047;-77
2023/11/13 04:41:20;;;;;;;0.68;0.28;;;;;;;3.73;77.45;100548.16;4991347;28;20522;-77
2023/11/13 04:43:47;;;;;;;0.30;0.20;;;;;;;3.72;77.37;100545.56;4988403;28;20055;-77
2023/11/13 04:46:14;;;;;;;0.30;0.20;;;;;;;3.71;77.30;100544.69;4986177;28;20038;-77
2023/11/13 04:48:41;;;;;;;0.32;0.30;;;;;;;3.70;77.41;100540.41;4986753;28;20046;-77
2023/11/13 04:51:08;;;;;;;0.77;0.40;;;;;;;3.71;77.48;100544.69;4991134;28;20047;-77
2023/11/13 04:53:35;;;;;;;0.43;0.30;;;;;;;3.69;77.30;100538.66;4978715;28;20050;-77
2023/11/13 04:56:02;;;;;;;0.50;0.30;;;;;;;3.69;77.30;100551.56;4990697;28;20108;-78
2023/11/13 04:58:32;;;;;;;0.90;0.30;;;;;;;3.69;77.29;100545.53;4984808;28;20061;-78
2023/11/13 05:00:59;;;;;;;0.63;0.30;;;;;;;3.67;77.10;100553.28;4984274;28;20049;-78
2023/11/13 05:03:25;;;;;;;0.50;0.30;;;;;;;3.66;77.14;100545.53;4988600;28;20050;-78
2023/11/13 05:05:52;;;;;;;0.40;0.30;;;;;;;3.64;77.24;100555.84;4988235;28;20050;-78
2023/11/13 05:08:19;;;;;;;2.05;0.30;;;;;;;3.64;77.22;100547.22;4982030;28;20047;-78
2023/11/13 05:10:46;;;;;;;1.10;0.30;;;;;;;3.62;77.34;100539.47;4989242;28;20549;-76
2023/11/13 05:13:15;;;;;;;0.40;0.30;;;;;;;3.55;77.22;100535.13;4983313;28;20050;-72
2023/11/13 05:15:43;;;;;;;0.85;0.30;;;;;;;3.59;77.16;100544.63;4986685;28;20138;-71
2023/11/13 05:18:10;;;;;;;0.30;0.22;;;;;;;3.60;77.13;100538.59;4983338;28;20054;-71
2023/11/13 05:20:43;;;;;;;0.45;0.30;;;;;;;3.58;77.18;100541.16;4990696;28;20046;-72
2023/11/13 05:23:09;;;;;;;0.55;0.30;;;;;;;3.59;77.16;100544.63;4989079;28;20073;-73
2023/11/13 05:25:36;;;;;;;0.47;0.20;;;;;;;3.53;77.08;100536.81;4989381;28;20466;-72
2023/11/13 05:28:06;;;;;;;0.52;0.20;;;;;;;3.57;77.05;100543.75;4989796;28;20052;-72
2023/11/13 05:30:34;;;;;;;3.13;0.40;;;;;;;3.57;77.24;100556.66;4988795;28;20054;-72
2023/11/13 05:33:02;;;;;;;0.38;0.30;;;;;;;3.56;77.19;100554.94;4989434;28;20058;-72
2023/11/13 05:35:29;;;;;;;0.30;0.30;;;;;;;3.55;77.28;100558.38;4990648;28;20466;-71
2023/11/13 05:37:56;;;;;;;0.50;0.40;;;;;;;3.53;77.14;100560.94;4989889;28;20065;-71
2023/11/13 05:40:24;;;;;;;0.55;0.30;;;;;;;3.51;77.14;100554.03;4989284;28;20046;-71
2023/11/13 05:42:51;;;;;;;1.30;0.30;;;;;;;3.50;76.92;100541.97;4988126;28;20062;-70
2023/11/13 05:45:18;;;;;;;0.20;0.10;;;;;;;3.50;76.90;100544.53;4988484;28;20510;-70
2023/11/13 05:47:45;;;;;;;1.88;0.40;;;;;;;3.49;77.10;100551.44;4986864;28;20078;-70
2023/11/13 05:50:14;;;;;;;0.73;0.40;;;;;;;3.49;76.77;100553.16;4985997;28;20053;-71
2023/11/13 05:52:42;;;;;;;0.98;0.30;;;;;;;3.47;76.81;100554.84;4988785;28;20079;-71
2023/11/13 05:55:09;;;;;;;0.40;0.30;;;;;;;3.47;76.95;100547.13;4989948;28;20105;-71
2023/11/13 05:57:37;;;;;;;0.68;0.30;;;;;;;3.45;76.91;100543.69;4988747;28;20626;-70
2023/11/13 06:00:05;;;;;;;1.08;0.40;;;;;;;3.45;76.86;100535.94;4989486;28;20466;-71
2023/11/13 06:02:33;;;;;;;0.20;0.20;;;;;;;3.45;76.91;100544.53;4990441;28;20527;-75
2023/11/13 06:05:00;;;;;;;0.45;0.40;;;;;;;3.45;76.94;100541.97;4987150;28;20051;-75
2023/11/13 06:07:28;;;;;;;0.60;0.30;;;;;;;3.43;76.77;100543.66;4988210;28;20050;-74
2023/11/13 06:09:55;;;;;;;0.25;0.25;;;;;;;3.43;77.12;100542.78;4987682;28;20051;-75
2023/11/13 06:12:23;;;;;;;1.25;0.20;;;;;;;3.45;77.03;100551.44;4990805;28;20054;-75
2023/11/13 06:14:50;;;;;;;0.47;0.40;;;;;;;3.42;76.87;100547.09;4983847;28;20142;-75
2023/11/13 06:17:17;;;;;;;0.40;0.30;;;;;;;3.44;77.22;100549.69;4989167;28;20492;-75
2023/11/13 06:19:43;;;;;;;0.40;0.30;;;;;;;3.42;77.11;100546.25;4987260;28;20125;-75
2023/11/13 06:22:10;;;;;;;0.40;0.20;;;;;;;3.40;76.88;100541.06;4990264;28;20812;-77
2023/11/13 06:24:39;;;;;;;1.77;0.30;;;;;;;3.40;76.83;100540.19;4991559;28;20045;-77
2023/11/13 06:27:06;;;;;;;2.03;0.50;;;;;;;3.40;76.84;100542.78;4990692;28;20089;-78
2023/11/13 06:29:33;;;;;;;0.30;0.28;;;;;;;3.39;76.90;100549.66;4985682;28;20069;-77
2023/11/13 06:32:01;;;;;;;0.40;0.38;;;;;;;3.38;76.86;100541.03;4992127;28;20518;-76
2023/11/13 06:34:28;;;;;;;0.60;0.30;;;;;;;3.33;76.80;100527.25;4987373;28;20093;-78
2023/11/13 06:36:55;;;;;;;0.30;0.20;;;;;;;3.37;76.74;100535.88;4991363;28;20054;-77
2023/11/13 06:39:23;;;;;;;0.75;0.30;;;;;;;3.33;76.73;100537.56;4986918;28;20046;-77
2023/11/13 06:41:52;;;;;;;0.30;0.20;;;;;;;3.34;76.71;100544.47;4990783;28;20097;-78
2023/11/13 06:44:19;;;;;;;0.60;0.30;;;;;;;3.35;76.80;100545.31;4991773;28;20050;-77
2023/11/13 06:46:46;;;;;;;1.70;0.40;;;;;;;3.35;76.82;100550.47;4991567;28;20073;-77
2023/11/13 06:49:14;;;;;;;0.40;0.20;;;;;;;3.33;76.59;100550.47;4990613;28;20460;-77
2023/11/13 06:51:40;;;;;;;0.73;0.35;;;;;;;3.33;76.68;100547.00;4991803;28;20514;-77
2023/11/13 06:54:08;;;;;;;0.68;0.60;;;;;;;3.33;76.90;100541.84;4987895;28;20057;-77
2023/11/13 06:56:36;;;;;;;0.68;0.68;;;;;;;3.31;76.98;100539.28;4985331;28;20048;-77
2023/11/13 06:59:06;;;;;;;3.20;1.52;;;;;;;3.32;76.70;100546.16;4988193;28;20116;-77
2023/11/13 07:01:40;;;;;;;8.32;3.13;;;;;;;3.32;76.42;100547.88;4986219;28;20052;-76
2023/11/13 07:04:09;;;;;;;0.40;0.30;;;;;;;3.32;76.77;100546.16;4989248;28;20046;-76
2023/11/13 07:06:36;;;;;;;0.40;0.30;;;;;;;3.30;76.63;100541.81;4985364;28;20052;-77
2023/11/13 07:09:03;;;;;;;0.50;0.30;;;;;;;3.28;76.79;100549.56;4985835;28;20510;-75
2023/11/13 07:11:30;;;;;;;0.60;0.40;;;;;;;3.29;76.76;100545.28;4988320;28;20183;-77
2023/11/13 07:13:57;;;;;;;2.15;0.40;;;;;;;3.28;76.54;100544.41;4992669;28;20703;-77
2023/11/13 07:16:26;;;;;;;2.20;0.25;;;;;;;3.28;76.50;100547.00;4991717;28;20054;-81
2023/11/13 07:18:53;;;;;;;1.75;0.30;;;;;;;3.29;76.58;100540.09;4988847;28;20054;-77
2023/11/13 07:21:21;;;;;;;1.13;0.50;;;;;;;3.28;76.61;100547.00;4991933;28;20479;-76
2023/11/13 07:23:48;;;;;;;2.95;0.32;;;;;;;3.26;76.29;100546.13;4991606;28;20418;-77
2023/11/13 07:26:17;;;;;;;1.73;0.40;;;;;;;3.28;76.66;100552.16;4990689;28;20703;-77
2023/11/13 07:28:44;;;;;;;0.40;0.30;;;;;;;3.27;76.40;100553.03;4988913;28;20097;-77
2023/11/13 07:31:11;;;;;;;0.52;0.30;;;;;;;3.28;76.44;100564.22;4991731;28;20054;-77
2023/11/13 07:33:39;;;;;;;0.70;0.30;;;;;;;3.23;76.47;100546.09;4988967;28;20078;-77
2023/11/13 07:36:06;;;;;;;1.80;0.30;;;;;;;3.27;76.61;100554.72;4992213;28;20058;-77
2023/11/13 07:38:33;;;;;;;0.55;0.20;;;;;;;3.28;76.44;100569.38;4989998;28;20491;-77
2023/11/13 07:41:00;;;;;;;4.22;0.30;;;;;;;3.20;76.39;100551.22;4991864;28;20050;-76
2023/11/13 07:43:28;;;;;;;1.05;0.60;;;;;;;3.24;76.37;100563.28;4991453;28;20046;-77
2023/11/13 07:45:55;;;;;;;0.40;0.30;;;;;;;3.25;76.10;100569.34;4994201;28;20078;-77
2023/11/13 07:48:24;;;;;;;2.15;0.30;;;;;;;3.24;76.29;100567.59;4989291;28;20046;-77
2023/11/13 07:50:52;;;;;;;0.80;0.30;;;;;;;3.23;76.45;100564.16;4990749;28;20125;-77
2023/11/13 07:53:19;;;;;;;1.65;0.65;;;;;;;3.23;76.26;100565.88;4991745;28;20550;-77
2023/11/13 07:55:46;;;;;;;0.60;0.20;;;;;;;3.22;76.16;100569.31;4990875;28;20060;-77
2023/11/13 07:58:13;;;;;;;0.60;0.38;;;;;;;3.19;76.19;100561.53;4988381;28;20415;-77
2023/11/13 08:00:40;;;;;;;0.57;0.38;;;;;;;3.19;76.25;100565.00;4990101;28;20049;-76
2023/11/13 08:03:07;;;;;;;0.80;0.40;;;;;;;3.19;76.18;100570.16;4989954;28;20045;-76
2023/11/13 08:05:34;;;;;;;0.47;0.30;;;;;;;3.17;76.15;100571.00;4990420;28;20054;-76
2023/11/13 08:08:03;;;;;;;0.77;0.30;;;;;;;3.20;76.18;100568.44;4989580;28;20050;-76
2023/11/13 08:10:30;;;;;;;0.85;0.40;;;;;;;3.19;76.23;100570.16;4987742;28;20053;-76
2023/11/13 08:13:01;;;;;;;0.90;0.30;;;;;;;3.20;76.21;100576.19;4990540;28;20046;-76
2023/11/13 08:15:29;;;;;;;0.55;0.30;;;;;;;3.18;76.29;100576.16;4989827;28;20054;-76
2023/11/13 08:17:56;;;;;;;0.57;0.30;;;;;;;3.19;76.26;100570.16;4987147;28;20054;-76
2023/11/13 08:20:26;;;;;;;0.68;0.40;;;;;;;3.18;76.30;100573.56;4988227;28;20514;-76
2023/11/13 08:22:56;;;;;;;1.02;0.30;;;;;;;3.20;76.17;100573.59;4990047;28;20046;-76
2023/11/13 08:25:25;;;;;;;0.82;0.20;;;;;;;3.19;76.11;100577.91;4984158;28;20054;-77
2023/11/13 08:27:52;;;;;;;0.40;0.30;;;;;;;3.19;76.19;100575.31;4985975;28;20522;-76
2023/11/13 08:30:22;;;;;;;0.40;0.30;;;;;;;3.20;76.35;100576.19;4990701;28;20051;-77
2023/11/13 08:32:51;;;;;;;0.60;0.30;;;;;;;3.21;76.15;100575.31;4986152;28;20050;-75
2023/11/13 08:35:19;;;;;;;0.35;0.20;;;;;;;3.22;76.26;100574.50;4988176;28;20050;-75
2023/11/13 08:37:47;;;;;;;2.15;0.20;;;;;;;3.21;76.30;100573.59;4987609;28;20056;-75
2023/11/13 08:40:17;;;;;;;0.93;0.20;;;;;;;3.20;76.17;100566.72;4984896;28;20073;-75
2023/11/13 08:42:46;;;;;;;1.65;0.20;;;;;;;3.19;76.11;100556.38;4989453;28;20038;-75
2023/11/13 08:45:15;;;;;;;0.60;0.60;;;;;;;3.23;76.08;100568.47;4988490;28;20057;-75
2023/11/13 08:47:42;;;;;;;0.70;0.20;;;;;;;3.23;76.35;100568.47;4986713;28;20109;-75
2023/11/13 08:50:11;;;;;;;0.40;0.20;;;;;;;3.20;76.29;100566.72;4988920;28;20042;-75
2023/11/13 08:52:40;;;;;;;1.05;0.30;;;;;;;3.24;76.11;100578.78;4986215;28;20043;-76
2023/11/13 08:55:10;;;;;;;3.03;0.30;;;;;;;3.24;76.00;100576.19;4994570;28;20042;-76
2023/11/13 08:57:38;;;;;;;0.60;0.40;;;;;;;3.25;76.29;100564.19;4993314;28;20066;-76
2023/11/13 09:00:09;;;;;;;0.40;0.20;;;;;;;3.26;76.25;100573.66;4990269;28;20050;-76
2023/11/13 09:02:36;;;;;;;0.70;0.30;;;;;;;3.22;76.17;100567.59;4993836;28;20061;-75
2023/11/13 09:05:04;;;;;;;0.95;0.30;;;;;;;3.17;76.03;100556.38;4987166;28;20067;-76
2023/11/13 09:07:31;;;;;;;1.65;0.20;;;;;;;3.26;76.16;100569.34;4992064;28;20089;-75
2023/11/13 09:10:08;;;;;;;0.55;0.30;;;;;;;3.27;76.10;100568.50;4991400;28;20463;-75
2023/11/13 09:12:37;;;;;;;0.90;0.32;;;;;;;3.27;76.14;100568.50;4993093;28;20053;-76
2023/11/13 09:15:13;;;;;;;0.95;0.30;;;;;;;3.29;76.23;100566.78;4984507;28;20062;-75
2023/11/13 09:17:43;;;;;;;3.70;0.40;;;;;;;3.29;76.29;100563.34;4992384;28;20085;-75
2023/11/13 09:20:11;;;;;;;1.58;0.45;;;;;;;3.31;76.24;100567.66;4991336;28;20046;-75
2023/11/13 09:22:39;;;;;;;1.15;0.95;;;;;;;3.31;76.10;100575.41;4992251;28;20050;-75
2023/11/13 09:25:07;;;;;;;1.48;0.30;;;;;;;3.33;76.19;100573.72;4991653;28;20062;-76
2023/11/13 09:27:34;;;;;;;0.38;0.30;;;;;;;3.33;76.13;100568.56;4993760;28;20050;-76
2023/11/13 09:30:04;;;;;;;0.47;0.30;;;;;;;3.30;76.26;100565.94;4992415;28;20137;-76
2023/11/13 09:32:32;;;;;;;0.40;0.30;;;;;;;3.35;76.00;100571.13;4992440;28;20427;-80
2023/11/13 09:34:59;;;;;;;0.30;0.20;;;;;;;3.36;76.11;100567.72;4992551;28;20503;-78
2023/11/13 09:37:26;;;;;;;0.80;0.30;;;;;;;3.37;76.20;100567.72;4992082;28;20054;-79
2023/11/13 09:39:53;;;;;;;0.50;0.20;;;;;;;3.38;76.04;100569.44;4987382;28;20046;-78
2023/11/13 09:42:22;;;;;;;0.50;0.30;;;;;;;3.40;75.99;100569.47;4990553;28;20053;-72
2023/11/13 09:44:49;;;;;;;0.47;0.30;;;;;;;3.41;76.01;100567.72;4989823;28;20057;-70
2023/11/13 09:47:18;;;;;;;0.50;0.30;;;;;;;3.41;76.19;100562.56;4990730;28;20527;-70
2023/11/13 09:49:56;;;;;;;2.72;1.42;;;;;;;3.42;75.91;100566.91;4989023;28;20049;-70
2023/11/13 09:52:27;;;;;;;1.70;0.57;;;;;;;3.43;75.91;100563.44;4988448;28;20426;-71
2023/11/13 09:54:55;;;;;;;0.60;0.20;;;;;;;3.38;75.88;100551.34;4990953;28;20093;-71
2023/11/13 09:57:23;;;;;;;0.50;0.30;;;;;;;3.45;76.04;100554.00;4986653;28;20174;-71
2023/11/13 09:59:52;;;;;;;0.52;0.40;;;;;;;3.45;76.04;100554.00;4987769;28;20130;-71
2023/11/13 10:02:20;;;;;;;2.03;0.40;;;;;;;3.46;76.26;100551.41;4989913;28;20046;-70
2023/11/13 10:04:48;;;;;;;2.22;0.30;;;;;;;3.47;75.90;100552.28;4987009;28;20049;-70
2023/11/13 10:07:18;;;;;;;0.30;0.20;;;;;;;3.46;75.99;100551.41;4989702;28;20046;-71
2023/11/13 10:10:02;;;;;;;0.50;0.28;;;;;;;3.48;75.82;100549.72;4988745;28;20587;-71
2023/11/13 10:12:30;;;;;;;0.88;0.40;;;;;;;3.48;75.87;100557.47;4987925;28;20073;-71
2023/11/13 10:15:07;;;;;;;1.90;0.30;;;;;;;3.47;75.68;100547.13;4988161;28;20050;-71
2023/11/13 10:17:42;;;;;;;1.58;0.30;;;;;;;3.50;75.63;100555.78;4990410;28;20110;-71
2023/11/13 10:20:17;;;;;;;0.70;0.30;;;;;;;3.49;75.76;100542.84;4990039;28;20054;-70
2023/11/13 10:22:44;;;;;;;2.83;0.28;;;;;;;3.52;75.75;100548.00;4990960;28;20043;-70
2023/11/13 10:25:11;;;;;;;0.28;0.20;;;;;;;3.49;75.65;100540.25;4988530;28;20044;-71
2023/11/13 10:27:40;;;;;;;0.30;0.20;;;;;;;3.57;75.81;100551.50;4991109;28;20546;-71
2023/11/13 10:30:07;;;;;;;0.82;0.20;;;;;;;3.56;75.82;100544.63;4986787;28;20069;-71
2023/11/13 10:32:36;;;;;;;0.20;0.10;;;;;;;3.49;75.85;100532.50;4987718;28;20050;-71
2023/11/13 10:35:03;;;;;;;0.68;0.20;;;;;;;3.59;75.71;100557.53;4987352;28;20047;-71
2023/11/13 10:37:32;;;;;;;0.30;0.30;;;;;;;3.60;75.77;100546.34;4986750;28;20051;-71
2023/11/13 10:39:59;;;;;;;0.50;0.30;;;;;;;3.61;75.62;100548.06;4987676;28;20058;-69
2023/11/13 10:42:27;;;;;;;0.40;0.30;;;;;;;3.62;75.68;100546.38;4989600;28;20078;-77
2023/11/13 10:44:57;;;;;;;1.42;0.45;;;;;;;3.62;75.59;100544.66;4992906;28;20039;-77
2023/11/13 10:47:25;;;;;;;0.60;0.40;;;;;;;3.62;75.22;100539.47;4991453;28;20515;-77
2023/11/13 10:49:53;;;;;;;8.88;0.30;;;;;;;3.64;75.59;100542.91;4984193;28;20047;-77
2023/11/13 10:52:21;;;;;;;0.30;0.30;;;;;;;3.62;75.49;100549.81;4992159;28;20057;-77
2023/11/13 10:54:51;;;;;;;0.40;0.20;;;;;;;3.65;75.42;100551.56;4991762;28;20065;-77
2023/11/13 10:57:19;;;;;;;2.15;0.70;;;;;;;3.65;75.49;100544.66;4983347;28;20105;-77
2023/11/13 10:59:49;;;;;;;2.65;0.30;;;;;;;3.66;75.47;100548.97;4988982;28;20525;-79
2023/11/13 11:02:25;;;;;;;0.85;0.25;;;;;;;3.68;75.46;100554.16;4990207;28;20053;-76
2023/11/13 11:04:56;;;;;;;1.73;0.45;;;;;;;3.68;75.35;100551.56;4988887;28;20038;-76
2023/11/13 11:07:26;;;;;;;0.93;0.40;;;;;;;3.70;75.40;100552.41;4991052;28;20085;-77
2023/11/13 11:09:59;;;;;;;2.85;0.63;;;;;;;3.71;75.38;100549.00;4990502;28;20054;-77
2023/11/13 11:12:31;;;;;;;0.85;0.50;;;;;;;3.71;75.56;100549.88;4991744;28;20073;-77
2023/11/13 11:15:17;;;;;;;0.52;0.22;;;;;;;3.70;75.51;100548.16;4984525;28;20050;-77
2023/11/13 11:17:49;;;;;;;3.53;0.40;;;;;;;3.72;75.53;100543.84;4990482;28;20050;-77
2023/11/13 11:20:26;;;;;;;1.02;0.30;;;;;;;3.72;75.43;100540.38;4989134;28;20054;-77
2023/11/13 11:23:00;;;;;;;0.70;0.47;;;;;;;3.71;75.49;100539.53;4989460;28;20487;-77
2023/11/13 11:25:46;;;;;;;0.47;0.30;;;;;;;3.73;75.46;100531.78;4988291;28;20504;-77
2023/11/13 11:28:41;;;;;;;0.75;0.40;;;;;;;3.76;75.65;100536.97;4989698;28;20124;-77
2023/11/13 11:31:45;;;;;;;0.60;0.35;;;;;;;3.76;75.38;100535.25;4980841;28;20064;-77
2023/11/13 11:34:23;;;;;;;3.35;1.52;;;;;;;3.75;75.45;100536.09;4986828;28;20419;-77
2023/11/13 11:36:54;;;;;;;2.00;0.60;;;;;;;3.77;75.51;100533.53;4986615;28;20042;-77
2023/11/13 11:39:22;;;;;;;3.05;0.47;;;;;;;3.79;75.14;100534.41;4990623;28;20054;-77